sensor_id;sensor_type;location;lat;lon;timestamp;temperature;humidity
5556;DHT22;2801;50.972;7.856;2023-06-10T00:02:26;13.70;99.90
5556;DHT22;2801;50.972;7.856;2023-06-10T00:04:54;13.50;99.90
5556;DHT22;2801;50.972;7.856;2023-06-10T00:07:22;13.40;99.90
5556;DHT22;2801;50.972;7.856;2023-06-10T00:09:49;13.40;99.90
5556;DHT22;2801;50.972;7.856;2023-06-10T00:12:16;13.50;99.90
5556;DHT22;2801;50.972;7.856;2023-06-10T00:14:45;13.50;99.90
5556;DHT22;2801;50.972;7.856;2023-06-10T00:17:12;13.40;99.90
5556;DHT22;2801;50.972;7.856;2023-06-10T00:19:39;13.40;99.90
5556;DHT22;2801;50.972;7.856;2023-06-10T00:22:07;13.30;99.90
5556;DHT22;2801;50.972;7.856;2023-06-10T00:24:36;13.30;99.90
5556;DHT22;2801;50.972;7.856;2023-06-10T00:27:03;13.30;99.90
5556;DHT22;2801;50.972;7.856;2023-06-10T00:29:30;13.30;99.90
5556;DHT22;2801;50.972;7.856;2023-06-10T00:31:57;13.30;99.90
5556;DHT22;2801;50.972;7.856;2023-06-10T00:34:24;13.30;99.90
5556;DHT22;2801;50.972;7.856;2023-06-10T00:36:51;13.30;99.90
5556;DHT22;2801;50.972;7.856;2023-06-10T00:39:18;13.30;99.90
5556;DHT22;2801;50.972;7.856;2023-06-10T00:41:45;13.20;99.90
5556;DHT22;2801;50.972;7.856;2023-06-10T00:44:13;13.20;99.90
5556;DHT22;2801;50.972;7.856;2023-06-10T00:46:39;13.10;99.90
5556;DHT22;2801;50.972;7.856;2023-06-10T00:49:07;13.10;99.90
5556;DHT22;2801;50.972;7.856;2023-06-10T00:51:35;13.10;99.90
5556;DHT22;2801;50.972;7.856;2023-06-10T00:54:03;13.10;99.90
5556;DHT22;2801;50.972;7.856;2023-06-10T00:56:32;13.10;99.90
5556;DHT22;2801;50.972;7.856;2023-06-10T00:59:01;13.00;99.90
5556;DHT22;2801;50.972;7.856;2023-06-10T01:01:28;13.00;99.90
5556;DHT22;2801;50.972;7.856;2023-06-10T01:03:56;13.00;99.90
5556;DHT22;2801;50.972;7.856;2023-06-10T01:10:05;13.00;99.90
5556;DHT22;2801;50.972;7.856;2023-06-10T01:13:19;12.90;99.90
5556;DHT22;2801;50.972;7.856;2023-06-10T01:15:31;12.90;99.90
5556;DHT22;2801;50.972;7.856;2023-06-10T01:18:00;12.80;99.90
5556;DHT22;2801;50.972;7.856;2023-06-10T01:20:30;12.80;99.90
5556;DHT22;2801;50.972;7.856;2023-06-10T01:22:59;12.80;99.90
5556;DHT22;2801;50.972;7.856;2023-06-10T01:25:29;12.70;99.90
5556;DHT22;2801;50.972;7.856;2023-06-10T01:34:11;12.70;99.90
5556;DHT22;2801;50.972;7.856;2023-06-10T01:36:41;12.60;99.90
5556;DHT22;2801;50.972;7.856;2023-06-10T01:39:13;12.60;99.90
5556;DHT22;2801;50.972;7.856;2023-06-10T01:41:42;12.50;99.90
5556;DHT22;2801;50.972;7.856;2023-06-10T01:44:10;12.60;99.90
5556;DHT22;2801;50.972;7.856;2023-06-10T01:46:37;12.50;99.90
5556;DHT22;2801;50.972;7.856;2023-06-10T01:49:04;12.60;99.90
5556;DHT22;2801;50.972;7.856;2023-06-10T01:51:31;12.40;99.90
5556;DHT22;2801;50.972;7.856;2023-06-10T01:53:58;12.40;99.90
5556;DHT22;2801;50.972;7.856;2023-06-10T01:56:25;12.40;99.90
5556;DHT22;2801;50.972;7.856;2023-06-10T01:58:52;12.30;99.90
5556;DHT22;2801;50.972;7.856;2023-06-10T02:01:21;12.30;99.90
5556;DHT22;2801;50.972;7.856;2023-06-10T02:03:48;12.30;99.90
5556;DHT22;2801;50.972;7.856;2023-06-10T02:06:15;12.20;99.90
5556;DHT22;2801;50.972;7.856;2023-06-10T02:08:42;12.40;99.90
5556;DHT22;2801;50.972;7.856;2023-06-10T02:11:09;12.20;99.90
5556;DHT22;2801;50.972;7.856;2023-06-10T02:13:38;12.30;99.90
5556;DHT22;2801;50.972;7.856;2023-06-10T02:16:05;12.30;99.90
5556;DHT22;2801;50.972;7.856;2023-06-10T02:18:32;12.10;99.90
5556;DHT22;2801;50.972;7.856;2023-06-10T02:21:00;12.10;99.90
5556;DHT22;2801;50.972;7.856;2023-06-10T02:23:27;12.00;99.90
5556;DHT22;2801;50.972;7.856;2023-06-10T02:25:54;12.20;99.90
5556;DHT22;2801;50.972;7.856;2023-06-10T02:28:21;11.90;99.90
5556;DHT22;2801;50.972;7.856;2023-06-10T02:30:48;11.90;99.90
5556;DHT22;2801;50.972;7.856;2023-06-10T02:33:15;11.80;99.90
5556;DHT22;2801;50.972;7.856;2023-06-10T02:35:44;12.00;99.90
5556;DHT22;2801;50.972;7.856;2023-06-10T02:38:11;11.80;99.90
5556;DHT22;2801;50.972;7.856;2023-06-10T02:40:37;12.00;99.90
5556;DHT22;2801;50.972;7.856;2023-06-10T02:43:04;11.80;99.90
5556;DHT22;2801;50.972;7.856;2023-06-10T02:45:31;11.80;99.90
5556;DHT22;2801;50.972;7.856;2023-06-10T02:47:58;11.70;99.90
5556;DHT22;2801;50.972;7.856;2023-06-10T02:50:25;11.70;99.90
5556;DHT22;2801;50.972;7.856;2023-06-10T02:52:52;11.70;99.90
5556;DHT22;2801;50.972;7.856;2023-06-10T02:55:19;11.70;99.90
5556;DHT22;2801;50.972;7.856;2023-06-10T02:57:47;11.60;99.90
5556;DHT22;2801;50.972;7.856;2023-06-10T03:00:14;11.60;99.90
5556;DHT22;2801;50.972;7.856;2023-06-10T03:02:41;11.60;99.90
5556;DHT22;2801;50.972;7.856;2023-06-10T03:05:08;11.50;99.90
5556;DHT22;2801;50.972;7.856;2023-06-10T03:07:37;11.50;99.90
5556;DHT22;2801;50.972;7.856;2023-06-10T03:10:05;11.50;99.90
5556;DHT22;2801;50.972;7.856;2023-06-10T03:12:33;11.50;99.90
5556;DHT22;2801;50.972;7.856;2023-06-10T03:14:59;11.50;99.90
5556;DHT22;2801;50.972;7.856;2023-06-10T03:17:26;11.50;99.90
5556;DHT22;2801;50.972;7.856;2023-06-10T03:19:53;11.40;99.90
5556;DHT22;2801;50.972;7.856;2023-06-10T03:22:20;11.40;99.90
5556;DHT22;2801;50.972;7.856;2023-06-10T03:24:47;11.40;99.90
5556;DHT22;2801;50.972;7.856;2023-06-10T03:27:17;11.30;99.90
5556;DHT22;2801;50.972;7.856;2023-06-10T03:29:44;11.30;99.90
5556;DHT22;2801;50.972;7.856;2023-06-10T03:32:11;11.30;99.90
5556;DHT22;2801;50.972;7.856;2023-06-10T03:34:39;11.30;99.90
5556;DHT22;2801;50.972;7.856;2023-06-10T03:37:07;11.50;99.90
5556;DHT22;2801;50.972;7.856;2023-06-10T03:39:34;11.40;99.90
5556;DHT22;2801;50.972;7.856;2023-06-10T03:42:01;11.40;99.90
5556;DHT22;2801;50.972;7.856;2023-06-10T03:44:28;11.40;99.90
5556;DHT22;2801;50.972;7.856;2023-06-10T03:46:55;11.40;99.90
5556;DHT22;2801;50.972;7.856;2023-06-10T03:49:22;11.50;99.90
5556;DHT22;2801;50.972;7.856;2023-06-10T03:51:52;11.40;99.90
5556;DHT22;2801;50.972;7.856;2023-06-10T03:54:20;11.60;99.90
5556;DHT22;2801;50.972;7.856;2023-06-10T03:56:47;11.50;99.90
5556;DHT22;2801;50.972;7.856;2023-06-10T03:59:17;11.60;99.90
5556;DHT22;2801;50.972;7.856;2023-06-10T04:01:44;11.60;99.90
5556;DHT22;2801;50.972;7.856;2023-06-10T04:04:14;11.70;99.90
5556;DHT22;2801;50.972;7.856;2023-06-10T04:06:43;11.80;99.90
5556;DHT22;2801;50.972;7.856;2023-06-10T04:09:14;11.80;99.90
5556;DHT22;2801;50.972;7.856;2023-06-10T04:11:42;12.00;99.90
5556;DHT22;2801;50.972;7.856;2023-06-10T04:14:13;12.20;99.90
5556;DHT22;2801;50.972;7.856;2023-06-10T04:16:40;12.20;99.90
5556;DHT22;2801;50.972;7.856;2023-06-10T04:19:09;12.20;99.90
5556;DHT22;2801;50.972;7.856;2023-06-10T04:21:36;12.30;99.90
5556;DHT22;2801;50.972;7.856;2023-06-10T04:24:03;12.60;99.90
5556;DHT22;2801;50.972;7.856;2023-06-10T04:26:30;12.50;99.90
5556;DHT22;2801;50.972;7.856;2023-06-10T04:28:57;12.60;99.90
5556;DHT22;2801;50.972;7.856;2023-06-10T04:31:24;12.70;99.90
5556;DHT22;2801;50.972;7.856;2023-06-10T04:33:51;12.70;99.90
5556;DHT22;2801;50.972;7.856;2023-06-10T04:36:18;12.80;99.90
5556;DHT22;2801;50.972;7.856;2023-06-10T04:38:45;12.90;99.90
5556;DHT22;2801;50.972;7.856;2023-06-10T04:41:13;13.00;99.90
5556;DHT22;2801;50.972;7.856;2023-06-10T04:43:40;13.20;99.90
5556;DHT22;2801;50.972;7.856;2023-06-10T04:46:07;13.20;99.90
5556;DHT22;2801;50.972;7.856;2023-06-10T04:48:35;13.30;99.90
5556;DHT22;2801;50.972;7.856;2023-06-10T04:51:02;13.40;99.90
5556;DHT22;2801;50.972;7.856;2023-06-10T04:53:29;13.60;99.90
5556;DHT22;2801;50.972;7.856;2023-06-10T04:55:57;13.70;99.90
5556;DHT22;2801;50.972;7.856;2023-06-10T04:58:24;13.80;99.90
5556;DHT22;2801;50.972;7.856;2023-06-10T05:00:51;14.20;99.90
5556;DHT22;2801;50.972;7.856;2023-06-10T05:03:18;14.50;99.90
5556;DHT22;2801;50.972;7.856;2023-06-10T05:05:45;15.30;99.90
5556;DHT22;2801;50.972;7.856;2023-06-10T05:08:12;16.30;99.90
5556;DHT22;2801;50.972;7.856;2023-06-10T05:10:39;17.30;99.90
5556;DHT22;2801;50.972;7.856;2023-06-10T05:13:06;18.30;99.90
5556;DHT22;2801;50.972;7.856;2023-06-10T05:15:33;19.10;99.90
5556;DHT22;2801;50.972;7.856;2023-06-10T05:18:00;20.00;99.90
5556;DHT22;2801;50.972;7.856;2023-06-10T05:20:29;20.80;99.90
5556;DHT22;2801;50.972;7.856;2023-06-10T05:22:56;21.50;99.90
5556;DHT22;2801;50.972;7.856;2023-06-10T05:25:25;22.00;99.90
5556;DHT22;2801;50.972;7.856;2023-06-10T05:27:53;22.30;99.90
5556;DHT22;2801;50.972;7.856;2023-06-10T05:30:20;22.70;99.90
5556;DHT22;2801;50.972;7.856;2023-06-10T05:32:48;22.80;99.90
5556;DHT22;2801;50.972;7.856;2023-06-10T05:35:15;23.00;99.90
5556;DHT22;2801;50.972;7.856;2023-06-10T05:37:42;23.20;99.90
5556;DHT22;2801;50.972;7.856;2023-06-10T05:40:10;23.20;99.90
5556;DHT22;2801;50.972;7.856;2023-06-10T05:42:38;23.20;99.90
5556;DHT22;2801;50.972;7.856;2023-06-10T05:45:05;23.30;99.90
5556;DHT22;2801;50.972;7.856;2023-06-10T05:47:34;23.40;99.90
5556;DHT22;2801;50.972;7.856;2023-06-10T05:50:01;23.40;99.10
5556;DHT22;2801;50.972;7.856;2023-06-10T05:52:28;23.40;98.20
5556;DHT22;2801;50.972;7.856;2023-06-10T05:54:55;23.30;97.70
5556;DHT22;2801;50.972;7.856;2023-06-10T05:57:22;23.50;97.10
5556;DHT22;2801;50.972;7.856;2023-06-10T05:59:49;23.60;96.50
5556;DHT22;2801;50.972;7.856;2023-06-10T06:02:16;23.80;96.20
5556;DHT22;2801;50.972;7.856;2023-06-10T06:04:43;24.00;95.80
5556;DHT22;2801;50.972;7.856;2023-06-10T06:07:10;24.40;94.90
5556;DHT22;2801;50.972;7.856;2023-06-10T06:09:37;24.70;93.80
5556;DHT22;2801;50.972;7.856;2023-06-10T06:12:04;25.00;92.80
5556;DHT22;2801;50.972;7.856;2023-06-10T06:14:38;25.30;92.10
5556;DHT22;2801;50.972;7.856;2023-06-10T06:17:08;25.70;91.50
5556;DHT22;2801;50.972;7.856;2023-06-10T06:19:35;26.00;90.40
5556;DHT22;2801;50.972;7.856;2023-06-10T06:22:01;26.30;89.50
5556;DHT22;2801;50.972;7.856;2023-06-10T06:24:29;26.60;87.10
5556;DHT22;2801;50.972;7.856;2023-06-10T06:26:56;26.80;86.30
5556;DHT22;2801;50.972;7.856;2023-06-10T06:29:23;27.00;85.60
5556;DHT22;2801;50.972;7.856;2023-06-10T06:31:50;27.10;84.60
5556;DHT22;2801;50.972;7.856;2023-06-10T06:34:17;27.10;83.70
5556;DHT22;2801;50.972;7.856;2023-06-10T06:36:44;27.20;83.50
5556;DHT22;2801;50.972;7.856;2023-06-10T06:39:11;27.20;82.10
5556;DHT22;2801;50.972;7.856;2023-06-10T06:41:38;27.10;81.80
5556;DHT22;2801;50.972;7.856;2023-06-10T06:44:05;27.10;81.90
5556;DHT22;2801;50.972;7.856;2023-06-10T06:46:32;27.30;82.20
5556;DHT22;2801;50.972;7.856;2023-06-10T06:48:59;27.60;82.00
5556;DHT22;2801;50.972;7.856;2023-06-10T06:51:26;27.80;81.60
5556;DHT22;2801;50.972;7.856;2023-06-10T06:53:53;28.10;81.10
5556;DHT22;2801;50.972;7.856;2023-06-10T06:56:23;28.30;80.80
5556;DHT22;2801;50.972;7.856;2023-06-10T06:58:50;28.50;80.40
5556;DHT22;2801;50.972;7.856;2023-06-10T07:01:17;28.80;80.20
5556;DHT22;2801;50.972;7.856;2023-06-10T07:03:44;28.90;79.40
5556;DHT22;2801;50.972;7.856;2023-06-10T07:06:12;29.20;79.30
5556;DHT22;2801;50.972;7.856;2023-06-10T07:08:39;29.40;78.90
5556;DHT22;2801;50.972;7.856;2023-06-10T07:11:06;29.60;77.80
5556;DHT22;2801;50.972;7.856;2023-06-10T07:13:33;29.80;76.80
5556;DHT22;2801;50.972;7.856;2023-06-10T07:16:00;30.10;75.30
5556;DHT22;2801;50.972;7.856;2023-06-10T07:18:27;30.20;73.70
5556;DHT22;2801;50.972;7.856;2023-06-10T07:20:54;30.40;72.50
5556;DHT22;2801;50.972;7.856;2023-06-10T07:23:21;30.60;70.80
5556;DHT22;2801;50.972;7.856;2023-06-10T07:25:48;30.70;69.60
5556;DHT22;2801;50.972;7.856;2023-06-10T07:28:14;31.00;70.20
5556;DHT22;2801;50.972;7.856;2023-06-10T07:30:41;31.30;68.50
5556;DHT22;2801;50.972;7.856;2023-06-10T07:33:08;31.70;68.00
5556;DHT22;2801;50.972;7.856;2023-06-10T07:35:37;32.00;66.20
5556;DHT22;2801;50.972;7.856;2023-06-10T07:38:04;32.30;64.80
5556;DHT22;2801;50.972;7.856;2023-06-10T07:40:31;32.50;63.10
5556;DHT22;2801;50.972;7.856;2023-06-10T07:43:01;33.10;61.70
5556;DHT22;2801;50.972;7.856;2023-06-10T07:45:28;33.80;59.60
5556;DHT22;2801;50.972;7.856;2023-06-10T07:47:55;34.30;58.30
5556;DHT22;2801;50.972;7.856;2023-06-10T07:50:22;34.40;57.80
5556;DHT22;2801;50.972;7.856;2023-06-10T07:52:49;34.60;58.10
5556;DHT22;2801;50.972;7.856;2023-06-10T07:55:16;34.90;57.20
5556;DHT22;2801;50.972;7.856;2023-06-10T07:57:43;35.30;55.80
5556;DHT22;2801;50.972;7.856;2023-06-10T08:00:10;35.30;54.70
5556;DHT22;2801;50.972;7.856;2023-06-10T08:02:37;35.40;54.40
5556;DHT22;2801;50.972;7.856;2023-06-10T08:05:05;35.70;54.20
5556;DHT22;2801;50.972;7.856;2023-06-10T08:07:32;35.90;54.00
5556;DHT22;2801;50.972;7.856;2023-06-10T08:09:59;36.10;53.10
5556;DHT22;2801;50.972;7.856;2023-06-10T08:12:27;36.40;52.20
5556;DHT22;2801;50.972;7.856;2023-06-10T08:14:54;36.60;52.00
5556;DHT22;2801;50.972;7.856;2023-06-10T08:17:21;36.80;52.00
5556;DHT22;2801;50.972;7.856;2023-06-10T08:19:48;37.00;50.40
5556;DHT22;2801;50.972;7.856;2023-06-10T08:22:15;37.20;49.50
5556;DHT22;2801;50.972;7.856;2023-06-10T08:24:42;37.40;49.30
5556;DHT22;2801;50.972;7.856;2023-06-10T08:27:11;37.40;48.20
5556;DHT22;2801;50.972;7.856;2023-06-10T08:29:39;37.30;48.00
5556;DHT22;2801;50.972;7.856;2023-06-10T08:32:07;37.20;48.20
5556;DHT22;2801;50.972;7.856;2023-06-10T08:34:34;36.80;47.40
5556;DHT22;2801;50.972;7.856;2023-06-10T08:37:05;36.50;47.40
5556;DHT22;2801;50.972;7.856;2023-06-10T08:39:32;36.50;47.80
5556;DHT22;2801;50.972;7.856;2023-06-10T08:42:49;36.70;47.10
5556;DHT22;2801;50.972;7.856;2023-06-10T08:45:01;36.70;47.40
5556;DHT22;2801;50.972;7.856;2023-06-10T08:47:30;36.40;48.10
5556;DHT22;2801;50.972;7.856;2023-06-10T08:50:03;36.20;48.40
5556;DHT22;2801;50.972;7.856;2023-06-10T08:52:37;36.50;47.80
5556;DHT22;2801;50.972;7.856;2023-06-10T08:55:21;36.70;46.80
5556;DHT22;2801;50.972;7.856;2023-06-10T08:57:59;37.20;46.30
5556;DHT22;2801;50.972;7.856;2023-06-10T09:00:28;37.40;45.90
5556;DHT22;2801;50.972;7.856;2023-06-10T09:02:57;37.30;46.70
5556;DHT22;2801;50.972;7.856;2023-06-10T09:05:33;36.80;47.00
5556;DHT22;2801;50.972;7.856;2023-06-10T09:08:01;35.80;49.30
5556;DHT22;2801;50.972;7.856;2023-06-10T09:10:28;34.90;50.10
5556;DHT22;2801;50.972;7.856;2023-06-10T09:12:56;34.30;51.40
5556;DHT22;2801;50.972;7.856;2023-06-10T09:15:23;33.60;52.70
5556;DHT22;2801;50.972;7.856;2023-06-10T09:17:50;33.00;53.10
5556;DHT22;2801;50.972;7.856;2023-06-10T09:20:18;32.40;53.30
5556;DHT22;2801;50.972;7.856;2023-06-10T09:22:45;32.10;53.90
5556;DHT22;2801;50.972;7.856;2023-06-10T09:25:13;32.20;52.70
5556;DHT22;2801;50.972;7.856;2023-06-10T09:27:51;32.30;52.80
5556;DHT22;2801;50.972;7.856;2023-06-10T09:30:29;32.20;53.00
5556;DHT22;2801;50.972;7.856;2023-06-10T09:33:02;32.50;52.20
5556;DHT22;2801;50.972;7.856;2023-06-10T09:35:37;32.80;51.90
5556;DHT22;2801;50.972;7.856;2023-06-10T09:38:22;33.20;51.20
5556;DHT22;2801;50.972;7.856;2023-06-10T09:40:51;33.10;51.40
5556;DHT22;2801;50.972;7.856;2023-06-10T09:43:19;32.60;51.80
5556;DHT22;2801;50.972;7.856;2023-06-10T09:45:50;32.00;52.90
5556;DHT22;2801;50.972;7.856;2023-06-10T09:48:20;31.80;52.10
5556;DHT22;2801;50.972;7.856;2023-06-10T09:50:48;31.10;52.20
5556;DHT22;2801;50.972;7.856;2023-06-10T09:53:17;30.20;53.80
5556;DHT22;2801;50.972;7.856;2023-06-10T09:55:44;29.50;54.60
5556;DHT22;2801;50.972;7.856;2023-06-10T09:58:11;29.40;55.10
5556;DHT22;2801;50.972;7.856;2023-06-10T10:00:38;29.50;55.80
5556;DHT22;2801;50.972;7.856;2023-06-10T10:03:05;29.20;56.00
5556;DHT22;2801;50.972;7.856;2023-06-10T10:05:33;28.90;57.30
5556;DHT22;2801;50.972;7.856;2023-06-10T10:08:00;28.60;56.60
5556;DHT22;2801;50.972;7.856;2023-06-10T10:10:27;28.30;56.20
5556;DHT22;2801;50.972;7.856;2023-06-10T10:12:55;28.50;55.00
5556;DHT22;2801;50.972;7.856;2023-06-10T10:15:25;29.30;54.20
5556;DHT22;2801;50.972;7.856;2023-06-10T10:18:09;29.70;53.90
5556;DHT22;2801;50.972;7.856;2023-06-10T10:20:49;30.20;54.30
5556;DHT22;2801;50.972;7.856;2023-06-10T10:23:26;31.10;52.70
5556;DHT22;2801;50.972;7.856;2023-06-10T10:26:00;31.80;51.90
5556;DHT22;2801;50.972;7.856;2023-06-10T10:28:46;31.90;52.40
5556;DHT22;2801;50.972;7.856;2023-06-10T10:31:19;31.70;53.30
5556;DHT22;2801;50.972;7.856;2023-06-10T10:33:59;31.20;53.10
5556;DHT22;2801;50.972;7.856;2023-06-10T10:36:29;30.80;53.90
5556;DHT22;2801;50.972;7.856;2023-06-10T10:38:57;30.50;54.70
5556;DHT22;2801;50.972;7.856;2023-06-10T10:41:26;29.90;55.20
5556;DHT22;2801;50.972;7.856;2023-06-10T10:43:54;29.60;54.50
5556;DHT22;2801;50.972;7.856;2023-06-10T10:46:22;29.90;54.00
5556;DHT22;2801;50.972;7.856;2023-06-10T10:48:53;30.30;52.50
5556;DHT22;2801;50.972;7.856;2023-06-10T10:51:22;30.90;50.70
5556;DHT22;2801;50.972;7.856;2023-06-10T10:54:10;31.40;50.50
5556;DHT22;2801;50.972;7.856;2023-06-10T10:57:13;31.40;50.70
5556;DHT22;2801;50.972;7.856;2023-06-10T11:02:44;31.40;51.30
5556;DHT22;2801;50.972;7.856;2023-06-10T11:05:15;31.80;50.60
5556;DHT22;2801;50.972;7.856;2023-06-10T11:07:53;31.90;49.30
5556;DHT22;2801;50.972;7.856;2023-06-10T11:10:34;31.60;49.50
5556;DHT22;2801;50.972;7.856;2023-06-10T11:13:15;31.30;49.10
5556;DHT22;2801;50.972;7.856;2023-06-10T11:15:47;30.90;50.80
5556;DHT22;2801;50.972;7.856;2023-06-10T11:18:24;30.50;50.90
5556;DHT22;2801;50.972;7.856;2023-06-10T11:21:05;30.30;51.20
5556;DHT22;2801;50.972;7.856;2023-06-10T11:23:33;30.20;51.50
5556;DHT22;2801;50.972;7.856;2023-06-10T11:31:23;29.40;52.50
5556;DHT22;2801;50.972;7.856;2023-06-10T11:34:03;29.10;51.90
5556;DHT22;2801;50.972;7.856;2023-06-10T11:36:34;29.00;53.30
5556;DHT22;2801;50.972;7.856;2023-06-10T11:39:05;29.10;53.60
5556;DHT22;2801;50.972;7.856;2023-06-10T11:41:33;29.10;52.90
5556;DHT22;2801;50.972;7.856;2023-06-10T11:44:04;29.20;54.10
5556;DHT22;2801;50.972;7.856;2023-06-10T11:46:47;29.30;54.10
5556;DHT22;2801;50.972;7.856;2023-06-10T11:49:16;29.00;53.70
5556;DHT22;2801;50.972;7.856;2023-06-10T11:51:43;28.80;53.90
5556;DHT22;2801;50.972;7.856;2023-06-10T11:54:16;28.80;54.90
5556;DHT22;2801;50.972;7.856;2023-06-10T11:56:44;29.00;54.20
5556;DHT22;2801;50.972;7.856;2023-06-10T11:59:11;28.90;54.10
5556;DHT22;2801;50.972;7.856;2023-06-10T12:01:43;28.60;54.80
5556;DHT22;2801;50.972;7.856;2023-06-10T12:04:13;28.40;55.40
5556;DHT22;2801;50.972;7.856;2023-06-10T12:06:47;28.10;54.60
5556;DHT22;2801;50.972;7.856;2023-06-10T12:09:28;28.20;56.20
5556;DHT22;2801;50.972;7.856;2023-06-10T12:12:03;28.50;56.80
5556;DHT22;2801;50.972;7.856;2023-06-10T12:14:55;28.80;56.10
5556;DHT22;2801;50.972;7.856;2023-06-10T12:20:08;29.30;54.90
5556;DHT22;2801;50.972;7.856;2023-06-10T12:22:43;29.40;55.50
5556;DHT22;2801;50.972;7.856;2023-06-10T12:25:11;29.50;55.70
5556;DHT22;2801;50.972;7.856;2023-06-10T12:27:41;29.70;55.10
5556;DHT22;2801;50.972;7.856;2023-06-10T12:30:19;29.70;55.40
5556;DHT22;2801;50.972;7.856;2023-06-10T12:32:48;29.70;56.10
5556;DHT22;2801;50.972;7.856;2023-06-10T12:35:19;29.60;55.00
5556;DHT22;2801;50.972;7.856;2023-06-10T12:37:59;29.50;54.90
5556;DHT22;2801;50.972;7.856;2023-06-10T12:40:29;29.50;54.70
5556;DHT22;2801;50.972;7.856;2023-06-10T12:42:59;29.60;56.00
5556;DHT22;2801;50.972;7.856;2023-06-10T12:45:33;29.80;55.40
5556;DHT22;2801;50.972;7.856;2023-06-10T12:48:22;29.90;55.10
5556;DHT22;2801;50.972;7.856;2023-06-10T12:50:54;29.90;54.30
5556;DHT22;2801;50.972;7.856;2023-06-10T12:53:23;30.00;54.60
5556;DHT22;2801;50.972;7.856;2023-06-10T12:55:51;30.10;54.50
5556;DHT22;2801;50.972;7.856;2023-06-10T12:58:22;30.00;53.80
5556;DHT22;2801;50.972;7.856;2023-06-10T13:00:50;29.80;53.50
5556;DHT22;2801;50.972;7.856;2023-06-10T13:03:19;29.70;53.90
5556;DHT22;2801;50.972;7.856;2023-06-10T13:05:47;29.80;54.00
5556;DHT22;2801;50.972;7.856;2023-06-10T13:08:15;29.80;53.60
5556;DHT22;2801;50.972;7.856;2023-06-10T13:10:42;29.80;53.70
5556;DHT22;2801;50.972;7.856;2023-06-10T13:13:09;29.70;54.00
5556;DHT22;2801;50.972;7.856;2023-06-10T13:15:38;29.80;54.20
5556;DHT22;2801;50.972;7.856;2023-06-10T13:18:10;29.80;54.10
5556;DHT22;2801;50.972;7.856;2023-06-10T13:20:38;29.80;54.70
5556;DHT22;2801;50.972;7.856;2023-06-10T13:23:05;29.90;53.90
5556;DHT22;2801;50.972;7.856;2023-06-10T13:25:32;29.90;53.00
5556;DHT22;2801;50.972;7.856;2023-06-10T13:27:58;29.90;53.30
5556;DHT22;2801;50.972;7.856;2023-06-10T13:30:25;29.90;52.80
5556;DHT22;2801;50.972;7.856;2023-06-10T13:32:53;29.90;52.50
5556;DHT22;2801;50.972;7.856;2023-06-10T13:35:20;30.00;53.10
5556;DHT22;2801;50.972;7.856;2023-06-10T13:37:47;30.20;51.60
5556;DHT22;2801;50.972;7.856;2023-06-10T13:40:14;30.30;51.90
5556;DHT22;2801;50.972;7.856;2023-06-10T13:42:42;30.40;51.50
5556;DHT22;2801;50.972;7.856;2023-06-10T13:45:09;30.40;51.30
5556;DHT22;2801;50.972;7.856;2023-06-10T13:47:37;30.50;51.60
5556;DHT22;2801;50.972;7.856;2023-06-10T13:50:05;30.60;51.80
5556;DHT22;2801;50.972;7.856;2023-06-10T13:52:33;30.60;50.80
5556;DHT22;2801;50.972;7.856;2023-06-10T13:55:00;30.50;50.40
5556;DHT22;2801;50.972;7.856;2023-06-10T13:57:27;30.10;49.40
5556;DHT22;2801;50.972;7.856;2023-06-10T13:59:54;29.60;50.10
5556;DHT22;2801;50.972;7.856;2023-06-10T14:02:22;29.20;50.10
5556;DHT22;2801;50.972;7.856;2023-06-10T14:04:50;29.00;51.40
5556;DHT22;2801;50.972;7.856;2023-06-10T14:07:17;29.10;50.90
5556;DHT22;2801;50.972;7.856;2023-06-10T14:09:44;29.30;51.30
5556;DHT22;2801;50.972;7.856;2023-06-10T14:12:10;29.50;51.50
5556;DHT22;2801;50.972;7.856;2023-06-10T14:14:38;29.70;51.30
5556;DHT22;2801;50.972;7.856;2023-06-10T14:17:05;29.80;51.40
5556;DHT22;2801;50.972;7.856;2023-06-10T14:19:32;30.00;51.90
5556;DHT22;2801;50.972;7.856;2023-06-10T14:21:59;30.10;51.30
5556;DHT22;2801;50.972;7.856;2023-06-10T14:24:26;30.20;50.40
5556;DHT22;2801;50.972;7.856;2023-06-10T14:26:53;30.30;49.80
5556;DHT22;2801;50.972;7.856;2023-06-10T14:29:20;30.30;50.10
5556;DHT22;2801;50.972;7.856;2023-06-10T14:31:47;30.40;50.30
5556;DHT22;2801;50.972;7.856;2023-06-10T14:34:14;30.50;49.60
5556;DHT22;2801;50.972;7.856;2023-06-10T14:36:41;30.60;49.20
5556;DHT22;2801;50.972;7.856;2023-06-10T14:39:08;30.60;49.60
5556;DHT22;2801;50.972;7.856;2023-06-10T14:41:35;30.80;48.60
5556;DHT22;2801;50.972;7.856;2023-06-10T14:44:02;30.70;49.00
5556;DHT22;2801;50.972;7.856;2023-06-10T14:46:29;30.80;50.20
5556;DHT22;2801;50.972;7.856;2023-06-10T14:48:56;30.90;49.20
5556;DHT22;2801;50.972;7.856;2023-06-10T14:51:23;30.90;49.40
5556;DHT22;2801;50.972;7.856;2023-06-10T14:53:50;31.00;49.10
5556;DHT22;2801;50.972;7.856;2023-06-10T14:56:17;30.90;49.60
5556;DHT22;2801;50.972;7.856;2023-06-10T14:58:44;30.90;48.70
5556;DHT22;2801;50.972;7.856;2023-06-10T15:01:11;30.90;48.90
5556;DHT22;2801;50.972;7.856;2023-06-10T15:03:38;30.70;47.50
5556;DHT22;2801;50.972;7.856;2023-06-10T15:06:05;30.50;47.70
5556;DHT22;2801;50.972;7.856;2023-06-10T15:08:32;30.40;47.60
5556;DHT22;2801;50.972;7.856;2023-06-10T15:10:59;30.50;48.40
5556;DHT22;2801;50.972;7.856;2023-06-10T15:13:28;30.60;48.00
5556;DHT22;2801;50.972;7.856;2023-06-10T15:15:55;30.60;46.80
5556;DHT22;2801;50.972;7.856;2023-06-10T15:18:22;30.40;46.70
5556;DHT22;2801;50.972;7.856;2023-06-10T15:20:49;30.30;47.50
5556;DHT22;2801;50.972;7.856;2023-06-10T15:23:16;30.20;48.20
5556;DHT22;2801;50.972;7.856;2023-06-10T15:25:43;30.20;49.00
5556;DHT22;2801;50.972;7.856;2023-06-10T15:28:10;30.30;49.30
5556;DHT22;2801;50.972;7.856;2023-06-10T15:30:38;30.50;49.20
5556;DHT22;2801;50.972;7.856;2023-06-10T15:33:05;30.70;49.70
5556;DHT22;2801;50.972;7.856;2023-06-10T15:35:33;30.80;49.10
5556;DHT22;2801;50.972;7.856;2023-06-10T15:38:00;30.90;48.90
5556;DHT22;2801;50.972;7.856;2023-06-10T15:40:27;30.90;49.10
5556;DHT22;2801;50.972;7.856;2023-06-10T15:42:54;30.80;49.40
5556;DHT22;2801;50.972;7.856;2023-06-10T15:45:21;30.80;49.00
5556;DHT22;2801;50.972;7.856;2023-06-10T15:47:48;30.50;48.50
5556;DHT22;2801;50.972;7.856;2023-06-10T15:50:15;30.30;48.70
5556;DHT22;2801;50.972;7.856;2023-06-10T15:52:42;30.20;48.90
5556;DHT22;2801;50.972;7.856;2023-06-10T15:55:09;30.30;49.20
5556;DHT22;2801;50.972;7.856;2023-06-10T15:57:36;30.40;49.00
5556;DHT22;2801;50.972;7.856;2023-06-10T16:00:03;30.40;49.00
5556;DHT22;2801;50.972;7.856;2023-06-10T16:02:32;30.30;49.40
5556;DHT22;2801;50.972;7.856;2023-06-10T16:05:03;30.10;49.90
5556;DHT22;2801;50.972;7.856;2023-06-10T16:07:31;29.90;50.00
5556;DHT22;2801;50.972;7.856;2023-06-10T16:09:58;29.50;50.00
5556;DHT22;2801;50.972;7.856;2023-06-10T16:12:26;29.10;50.60
5556;DHT22;2801;50.972;7.856;2023-06-10T16:14:53;28.80;51.10
5556;DHT22;2801;50.972;7.856;2023-06-10T16:17:20;28.80;52.00
5556;DHT22;2801;50.972;7.856;2023-06-10T16:19:47;28.80;52.40
5556;DHT22;2801;50.972;7.856;2023-06-10T16:22:14;28.80;52.70
5556;DHT22;2801;50.972;7.856;2023-06-10T16:24:41;28.90;52.60
5556;DHT22;2801;50.972;7.856;2023-06-10T16:27:08;29.10;52.60
5556;DHT22;2801;50.972;7.856;2023-06-10T16:29:35;29.20;53.00
5556;DHT22;2801;50.972;7.856;2023-06-10T16:32:02;29.20;52.60
5556;DHT22;2801;50.972;7.856;2023-06-10T16:34:29;29.20;53.00